sensor_id;sensor_type;location;lat;lon;timestamp;P1;durP1;ratioP1;P2;durP2;ratioP2
26946;SDS011;14501;52.282;10.560;2024-03-02T00:01:10;13.25;;;5.68;;
26946;SDS011;14501;52.282;10.560;2024-03-02T00:03:36;9.82;;;5.20;;
26946;SDS011;14501;52.282;10.560;2024-03-02T00:06:03;13.13;;;4.85;;
26946;SDS011;14501;52.282;10.560;2024-03-02T00:08:29;13.45;;;5.18;;
26946;SDS011;14501;52.282;10.560;2024-03-02T00:10:58;10.77;;;5.97;;
26946;SDS011;14501;52.282;10.560;2024-03-02T00:13:25;7.80;;;4.18;;
26946;SDS011;14501;52.282;10.560;2024-03-02T00:15:57;13.07;;;4.22;;
26946;SDS011;14501;52.282;10.560;2024-03-02T00:18:27;15.00;;;5.15;;
26946;SDS011;14501;52.282;10.560;2024-03-02T00:20:56;13.80;;;6.10;;
26946;SDS011;14501;52.282;10.560;2024-03-02T00:23:23;11.55;;;4.78;;
26946;SDS011;14501;52.282;10.560;2024-03-02T00:25:53;10.50;;;5.45;;
26946;SDS011;14501;52.282;10.560;2024-03-02T00:28:20;10.60;;;4.50;;
26946;SDS011;14501;52.282;10.560;2024-03-02T00:33:47;7.15;;;5.20;;
26946;SDS011;14501;52.282;10.560;2024-03-02T00:36:22;10.02;;;4.00;;
26946;SDS011;14501;52.282;10.560;2024-03-02T00:38:50;6.20;;;4.70;;
26946;SDS011;14501;52.282;10.560;2024-03-02T00:43:56;14.07;;;5.40;;
26946;SDS011;14501;52.282;10.560;2024-03-02T00:46:23;6.20;;;4.25;;
26946;SDS011;14501;52.282;10.560;2024-03-02T00:48:53;9.50;;;4.30;;
26946;SDS011;14501;52.282;10.560;2024-03-02T00:51:21;11.75;;;6.03;;
26946;SDS011;14501;52.282;10.560;2024-03-02T00:53:51;10.68;;;4.95;;
26946;SDS011;14501;52.282;10.560;2024-03-02T00:56:17;9.15;;;5.00;;
26946;SDS011;14501;52.282;10.560;2024-03-02T00:58:43;12.43;;;4.80;;
26946;SDS011;14501;52.282;10.560;2024-03-02T01:01:09;10.88;;;5.20;;
26946;SDS011;14501;52.282;10.560;2024-03-02T01:03:35;10.73;;;4.68;;
26946;SDS011;14501;52.282;10.560;2024-03-02T01:06:02;12.15;;;5.10;;
26946;SDS011;14501;52.282;10.560;2024-03-02T01:08:28;16.08;;;6.05;;
26946;SDS011;14501;52.282;10.560;2024-03-02T01:10:53;14.35;;;5.45;;
26946;SDS011;14501;52.282;10.560;2024-03-02T01:13:21;17.23;;;5.80;;
26946;SDS011;14501;52.282;10.560;2024-03-02T01:15:47;11.52;;;5.75;;
26946;SDS011;14501;52.282;10.560;2024-03-02T01:18:13;10.93;;;5.90;;
26946;SDS011;14501;52.282;10.560;2024-03-02T01:20:39;14.98;;;6.13;;
26946;SDS011;14501;52.282;10.560;2024-03-02T01:23:04;13.88;;;6.07;;
26946;SDS011;14501;52.282;10.560;2024-03-02T01:25:30;10.65;;;5.63;;
26946;SDS011;14501;52.282;10.560;2024-03-02T01:27:55;12.85;;;5.32;;
26946;SDS011;14501;52.282;10.560;2024-03-02T01:30:21;7.78;;;4.65;;
26946;SDS011;14501;52.282;10.560;2024-03-02T01:32:46;11.88;;;5.90;;
26946;SDS011;14501;52.282;10.560;2024-03-02T01:35:12;16.60;;;6.05;;
26946;SDS011;14501;52.282;10.560;2024-03-02T01:37:38;14.07;;;5.80;;
26946;SDS011;14501;52.282;10.560;2024-03-02T01:40:03;10.32;;;5.68;;
26946;SDS011;14501;52.282;10.560;2024-03-02T01:42:34;11.23;;;6.30;;
26946;SDS011;14501;52.282;10.560;2024-03-02T01:45:06;14.95;;;6.45;;
26946;SDS011;14501;52.282;10.560;2024-03-02T01:47:33;14.40;;;4.15;;
26946;SDS011;14501;52.282;10.560;2024-03-02T01:49:59;13.63;;;6.13;;
26946;SDS011;14501;52.282;10.560;2024-03-02T01:52:25;12.55;;;4.88;;
26946;SDS011;14501;52.282;10.560;2024-03-02T01:54:52;14.73;;;5.93;;
26946;SDS011;14501;52.282;10.560;2024-03-02T01:57:17;13.43;;;4.78;;
26946;SDS011;14501;52.282;10.560;2024-03-02T01:59:43;10.77;;;5.00;;
26946;SDS011;14501;52.282;10.560;2024-03-02T02:02:09;12.88;;;6.93;;
26946;SDS011;14501;52.282;10.560;2024-03-02T02:04:35;13.60;;;5.50;;
26946;SDS011;14501;52.282;10.560;2024-03-02T02:07:00;14.75;;;5.68;;
26946;SDS011;14501;52.282;10.560;2024-03-02T02:09:26;10.68;;;6.05;;
26946;SDS011;14501;52.282;10.560;2024-03-02T02:11:52;12.02;;;6.38;;
26946;SDS011;14501;52.282;10.560;2024-03-02T02:14:17;13.82;;;5.47;;
26946;SDS011;14501;52.282;10.560;2024-03-02T02:16:43;12.07;;;5.10;;
26946;SDS011;14501;52.282;10.560;2024-03-02T02:19:09;10.50;;;6.07;;
26946;SDS011;14501;52.282;10.560;2024-03-02T02:21:35;12.10;;;5.10;;
26946;SDS011;14501;52.282;10.560;2024-03-02T02:24:01;12.82;;;5.32;;
26946;SDS011;14501;52.282;10.560;2024-03-02T02:26:28;12.93;;;6.10;;
26946;SDS011;14501;52.282;10.560;2024-03-02T02:28:54;15.10;;;5.88;;
26946;SDS011;14501;52.282;10.560;2024-03-02T02:31:20;13.18;;;5.55;;
26946;SDS011;14501;52.282;10.560;2024-03-02T02:33:45;14.20;;;5.90;;
26946;SDS011;14501;52.282;10.560;2024-03-02T02:36:11;11.93;;;6.13;;
26946;SDS011;14501;52.282;10.560;2024-03-02T02:38:41;15.05;;;5.47;;
26946;SDS011;14501;52.282;10.560;2024-03-02T02:41:09;11.23;;;5.60;;
26946;SDS011;14501;52.282;10.560;2024-03-02T02:43:35;15.02;;;5.55;;
26946;SDS011;14501;52.282;10.560;2024-03-02T02:46:00;19.45;;;6.38;;
26946;SDS011;14501;52.282;10.560;2024-03-02T02:48:26;14.98;;;6.97;;
26946;SDS011;14501;52.282;10.560;2024-03-02T02:50:51;16.48;;;5.00;;
26946;SDS011;14501;52.282;10.560;2024-03-02T02:53:17;13.15;;;5.93;;
26946;SDS011;14501;52.282;10.560;2024-03-02T02:55:43;11.63;;;5.30;;
26946;SDS011;14501;52.282;10.560;2024-03-02T02:58:12;12.75;;;5.47;;
26946;SDS011;14501;52.282;10.560;2024-03-02T03:00:38;10.75;;;5.55;;
26946;SDS011;14501;52.282;10.560;2024-03-02T03:03:04;12.05;;;5.32;;
26946;SDS011;14501;52.282;10.560;2024-03-02T03:05:30;13.63;;;5.68;;
26946;SDS011;14501;52.282;10.560;2024-03-02T03:07:56;13.15;;;5.55;;
26946;SDS011;14501;52.282;10.560;2024-03-02T03:10:21;15.13;;;5.85;;
26946;SDS011;14501;52.282;10.560;2024-03-02T03:12:48;12.25;;;6.63;;
26946;SDS011;14501;52.282;10.560;2024-03-02T03:15:14;10.50;;;6.45;;
26946;SDS011;14501;52.282;10.560;2024-03-02T03:17:41;15.90;;;5.53;;
26946;SDS011;14501;52.282;10.560;2024-03-02T03:20:07;12.13;;;6.45;;
26946;SDS011;14501;52.282;10.560;2024-03-02T03:22:36;14.55;;;7.05;;
26946;SDS011;14501;52.282;10.560;2024-03-02T03:25:03;14.20;;;5.88;;
26946;SDS011;14501;52.282;10.560;2024-03-02T03:27:28;16.25;;;6.07;;
26946;SDS011;14501;52.282;10.560;2024-03-02T03:29:54;21.17;;;7.00;;
26946;SDS011;14501;52.282;10.560;2024-03-02T03:32:20;12.68;;;6.07;;
26946;SDS011;14501;52.282;10.560;2024-03-02T03:34:45;12.93;;;6.68;;
26946;SDS011;14501;52.282;10.560;2024-03-02T03:37:13;10.88;;;5.55;;
26946;SDS011;14501;52.282;10.560;2024-03-02T03:39:38;17.63;;;6.82;;
26946;SDS011;14501;52.282;10.560;2024-03-02T03:42:04;12.07;;;6.70;;
26946;SDS011;14501;52.282;10.560;2024-03-02T03:44:30;12.57;;;6.90;;
26946;SDS011;14501;52.282;10.560;2024-03-02T03:46:55;13.45;;;5.88;;
26946;SDS011;14501;52.282;10.560;2024-03-02T03:49:21;15.88;;;6.75;;
26946;SDS011;14501;52.282;10.560;2024-03-02T03:51:47;13.70;;;5.88;;
26946;SDS011;14501;52.282;10.560;2024-03-02T03:54:12;11.68;;;4.97;;
26946;SDS011;14501;52.282;10.560;2024-03-02T03:56:38;11.52;;;5.80;;
26946;SDS011;14501;52.282;10.560;2024-03-02T03:59:04;14.10;;;6.65;;
26946;SDS011;14501;52.282;10.560;2024-03-02T04:01:30;8.70;;;5.43;;
26946;SDS011;14501;52.282;10.560;2024-03-02T04:03:56;20.98;;;6.72;;
26946;SDS011;14501;52.282;10.560;2024-03-02T04:06:22;13.75;;;6.93;;
26946;SDS011;14501;52.282;10.560;2024-03-02T04:08:48;10.82;;;6.45;;
26946;SDS011;14501;52.282;10.560;2024-03-02T04:11:14;11.70;;;6.22;;
26946;SDS011;14501;52.282;10.560;2024-03-02T04:13:40;15.13;;;7.25;;
26946;SDS011;14501;52.282;10.560;2024-03-02T04:16:05;13.07;;;4.60;;
26946;SDS011;14501;52.282;10.560;2024-03-02T04:18:31;10.88;;;5.32;;
26946;SDS011;14501;52.282;10.560;2024-03-02T04:21:00;14.30;;;5.78;;
26946;SDS011;14501;52.282;10.560;2024-03-02T04:23:28;11.98;;;5.88;;
26946;SDS011;14501;52.282;10.560;2024-03-02T04:25:54;9.57;;;5.50;;
26946;SDS011;14501;52.282;10.560;2024-03-02T04:28:19;18.92;;;6.55;;
26946;SDS011;14501;52.282;10.560;2024-03-02T04:30:45;17.15;;;6.55;;
26946;SDS011;14501;52.282;10.560;2024-03-02T04:33:11;11.32;;;5.60;;
26946;SDS011;14501;52.282;10.560;2024-03-02T04:35:36;12.70;;;5.60;;
26946;SDS011;14501;52.282;10.560;2024-03-02T04:38:02;13.73;;;6.03;;
26946;SDS011;14501;52.282;10.560;2024-03-02T04:40:28;12.32;;;5.70;;
26946;SDS011;14501;52.282;10.560;2024-03-02T04:42:53;11.20;;;4.53;;
26946;SDS011;14501;52.282;10.560;2024-03-02T04:45:19;11.60;;;6.18;;
26946;SDS011;14501;52.282;10.560;2024-03-02T04:47:44;11.30;;;4.90;;
26946;SDS011;14501;52.282;10.560;2024-03-02T04:50:10;11.48;;;4.70;;
26946;SDS011;14501;52.282;10.560;2024-03-02T04:52:37;11.77;;;5.70;;
26946;SDS011;14501;52.282;10.560;2024-03-02T04:55:03;9.80;;;4.22;;
26946;SDS011;14501;52.282;10.560;2024-03-02T04:57:49;13.48;;;5.32;;
26946;SDS011;14501;52.282;10.560;2024-03-02T05:00:15;9.80;;;4.85;;
26946;SDS011;14501;52.282;10.560;2024-03-02T05:02:42;11.95;;;5.05;;
26946;SDS011;14501;52.282;10.560;2024-03-02T05:05:07;12.80;;;5.30;;
26946;SDS011;14501;52.282;10.560;2024-03-02T05:07:33;15.00;;;5.63;;
26946;SDS011;14501;52.282;10.560;2024-03-02T05:09:59;9.75;;;5.65;;
26946;SDS011;14501;52.282;10.560;2024-03-02T05:12:25;12.43;;;6.18;;
26946;SDS011;14501;52.282;10.560;2024-03-02T05:15:09;10.70;;;6.47;;
26946;SDS011;14501;52.282;10.560;2024-03-02T05:17:36;11.45;;;5.78;;
26946;SDS011;14501;52.282;10.560;2024-03-02T05:20:03;9.73;;;5.18;;
26946;SDS011;14501;52.282;10.560;2024-03-02T05:22:29;13.68;;;5.60;;
26946;SDS011;14501;52.282;10.560;2024-03-02T05:24:55;10.70;;;5.07;;
26946;SDS011;14501;52.282;10.560;2024-03-02T05:27:21;11.07;;;5.35;;
26946;SDS011;14501;52.282;10.560;2024-03-02T05:29:47;13.05;;;5.65;;
26946;SDS011;14501;52.282;10.560;2024-03-02T05:32:12;10.65;;;6.15;;
26946;SDS011;14501;52.282;10.560;2024-03-02T05:34:38;16.75;;;6.55;;
26946;SDS011;14501;52.282;10.560;2024-03-02T05:37:04;12.32;;;5.25;;
26946;SDS011;14501;52.282;10.560;2024-03-02T05:39:29;21.80;;;8.63;;
26946;SDS011;14501;52.282;10.560;2024-03-02T05:41:55;14.77;;;6.95;;
26946;SDS011;14501;52.282;10.560;2024-03-02T05:44:20;12.45;;;6.80;;
26946;SDS011;14501;52.282;10.560;2024-03-02T05:46:47;22.48;;;7.13;;
26946;SDS011;14501;52.282;10.560;2024-03-02T05:49:12;15.25;;;7.50;;
26946;SDS011;14501;52.282;10.560;2024-03-02T05:51:38;16.13;;;7.28;;
26946;SDS011;14501;52.282;10.560;2024-03-02T05:54:04;12.13;;;5.32;;
26946;SDS011;14501;52.282;10.560;2024-03-02T05:56:30;14.57;;;6.30;;
26946;SDS011;14501;52.282;10.560;2024-03-02T05:58:55;18.90;;;6.68;;
26946;SDS011;14501;52.282;10.560;2024-03-02T06:01:40;18.40;;;7.53;;
26946;SDS011;14501;52.282;10.560;2024-03-02T06:04:09;15.18;;;6.90;;
26946;SDS011;14501;52.282;10.560;2024-03-02T06:06:39;13.00;;;7.50;;
26946;SDS011;14501;52.282;10.560;2024-03-02T06:09:05;13.05;;;6.18;;
26946;SDS011;14501;52.282;10.560;2024-03-02T06:11:37;15.02;;;6.85;;
26946;SDS011;14501;52.282;10.560;2024-03-02T06:14:04;14.32;;;6.40;;
26946;SDS011;14501;52.282;10.560;2024-03-02T06:16:31;15.27;;;6.05;;
26946;SDS011;14501;52.282;10.560;2024-03-02T06:18:57;14.68;;;7.22;;
26946;SDS011;14501;52.282;10.560;2024-03-02T06:21:29;15.38;;;7.43;;
26946;SDS011;14501;52.282;10.560;2024-03-02T06:23:55;18.35;;;6.43;;
26946;SDS011;14501;52.282;10.560;2024-03-02T06:26:21;14.45;;;6.22;;
26946;SDS011;14501;52.282;10.560;2024-03-02T06:28:47;17.48;;;7.28;;
26946;SDS011;14501;52.282;10.560;2024-03-02T06:31:12;21.52;;;10.18;;
26946;SDS011;14501;52.282;10.560;2024-03-02T06:33:38;15.52;;;5.70;;
26946;SDS011;14501;52.282;10.560;2024-03-02T06:36:05;19.02;;;6.38;;
26946;SDS011;14501;52.282;10.560;2024-03-02T06:38:33;15.85;;;6.75;;
26946;SDS011;14501;52.282;10.560;2024-03-02T06:40:59;12.25;;;7.45;;
26946;SDS011;14501;52.282;10.560;2024-03-02T06:43:24;15.15;;;6.85;;
26946;SDS011;14501;52.282;10.560;2024-03-02T06:45:50;10.98;;;6.78;;
26946;SDS011;14501;52.282;10.560;2024-03-02T06:48:16;15.98;;;6.78;;
26946;SDS011;14501;52.282;10.560;2024-03-02T06:50:48;15.55;;;7.47;;
26946;SDS011;14501;52.282;10.560;2024-03-02T06:53:14;20.23;;;8.38;;
26946;SDS011;14501;52.282;10.560;2024-03-02T06:55:44;18.95;;;7.30;;
26946;SDS011;14501;52.282;10.560;2024-03-02T06:58:11;15.10;;;6.28;;
26946;SDS011;14501;52.282;10.560;2024-03-02T07:00:42;15.13;;;6.63;;
26946;SDS011;14501;52.282;10.560;2024-03-02T07:03:12;18.27;;;7.55;;
26946;SDS011;14501;52.282;10.560;2024-03-02T07:05:38;19.85;;;6.75;;
26946;SDS011;14501;52.282;10.560;2024-03-02T07:08:04;16.73;;;7.13;;
26946;SDS011;14501;52.282;10.560;2024-03-02T07:10:31;17.15;;;7.30;;
26946;SDS011;14501;52.282;10.560;2024-03-02T07:12:57;13.13;;;6.00;;
26946;SDS011;14501;52.282;10.560;2024-03-02T07:15:22;21.85;;;7.35;;
26946;SDS011;14501;52.282;10.560;2024-03-02T07:18:06;10.63;;;5.22;;
26946;SDS011;14501;52.282;10.560;2024-03-02T07:20:32;13.48;;;6.40;;
26946;SDS011;14501;52.282;10.560;2024-03-02T07:23:00;13.32;;;7.18;;
26946;SDS011;14501;52.282;10.560;2024-03-02T07:25:27;11.57;;;6.03;;
26946;SDS011;14501;52.282;10.560;2024-03-02T07:27:53;12.20;;;6.28;;
26946;SDS011;14501;52.282;10.560;2024-03-02T07:30:18;12.50;;;6.60;;
26946;SDS011;14501;52.282;10.560;2024-03-02T07:32:44;12.68;;;6.93;;
26946;SDS011;14501;52.282;10.560;2024-03-02T07:35:14;16.10;;;7.93;;
26946;SDS011;14501;52.282;10.560;2024-03-02T07:37:40;19.58;;;6.55;;
26946;SDS011;14501;52.282;10.560;2024-03-02T07:40:07;17.17;;;6.88;;
26946;SDS011;14501;52.282;10.560;2024-03-02T07:42:39;17.50;;;6.18;;
26946;SDS011;14501;52.282;10.560;2024-03-02T07:45:05;12.63;;;6.90;;
26946;SDS011;14501;52.282;10.560;2024-03-02T07:47:33;17.73;;;7.50;;
26946;SDS011;14501;52.282;10.560;2024-03-02T07:49:59;10.32;;;5.72;;
26946;SDS011;14501;52.282;10.560;2024-03-02T07:52:24;13.00;;;7.63;;
26946;SDS011;14501;52.282;10.560;2024-03-02T07:54:50;14.07;;;6.43;;
26946;SDS011;14501;52.282;10.560;2024-03-02T07:57:16;19.30;;;7.40;;
26946;SDS011;14501;52.282;10.560;2024-03-02T07:59:41;16.83;;;6.88;;
26946;SDS011;14501;52.282;10.560;2024-03-02T08:02:08;14.18;;;6.88;;
26946;SDS011;14501;52.282;10.560;2024-03-02T08:04:33;17.17;;;7.53;;
26946;SDS011;14501;52.282;10.560;2024-03-02T08:06:59;14.80;;;6.60;;
26946;SDS011;14501;52.282;10.560;2024-03-02T08:09:25;11.85;;;6.90;;
26946;SDS011;14501;52.282;10.560;2024-03-02T08:11:50;16.52;;;7.93;;
26946;SDS011;14501;52.282;10.560;2024-03-02T08:14:16;14.50;;;6.32;;
26946;SDS011;14501;52.282;10.560;2024-03-02T08:16:42;13.50;;;7.30;;
26946;SDS011;14501;52.282;10.560;2024-03-02T08:19:07;13.18;;;6.50;;
26946;SDS011;14501;52.282;10.560;2024-03-02T08:21:34;16.45;;;6.38;;
26946;SDS011;14501;52.282;10.560;2024-03-02T08:24:00;13.00;;;5.15;;
26946;SDS011;14501;52.282;10.560;2024-03-02T08:26:27;13.35;;;5.25;;
26946;SDS011;14501;52.282;10.560;2024-03-02T08:28:57;14.80;;;6.88;;
26946;SDS011;14501;52.282;10.560;2024-03-02T08:31:23;13.80;;;6.95;;
26946;SDS011;14501;52.282;10.560;2024-03-02T08:33:48;13.55;;;6.32;;
26946;SDS011;14501;52.282;10.560;2024-03-02T08:36:14;14.98;;;6.60;;
26946;SDS011;14501;52.282;10.560;2024-03-02T08:38:40;20.23;;;7.05;;
26946;SDS011;14501;52.282;10.560;2024-03-02T08:41:06;23.98;;;7.15;;
26946;SDS011;14501;52.282;10.560;2024-03-02T08:43:32;16.10;;;7.05;;
26946;SDS011;14501;52.282;10.560;2024-03-02T08:45:58;14.48;;;6.80;;
26946;SDS011;14501;52.282;10.560;2024-03-02T08:48:24;17.40;;;7.28;;
26946;SDS011;14501;52.282;10.560;2024-03-02T08:50:49;13.15;;;7.10;;
26946;SDS011;14501;52.282;10.560;2024-03-02T08:53:15;13.25;;;6.35;;
26946;SDS011;14501;52.282;10.560;2024-03-02T08:55:43;15.40;;;6.60;;
26946;SDS011;14501;52.282;10.560;2024-03-02T08:58:10;13.00;;;7.00;;
26946;SDS011;14501;52.282;10.560;2024-03-02T09:00:36;10.93;;;6.05;;
26946;SDS011;14501;52.282;10.560;2024-03-02T09:03:02;11.88;;;5.75;;
26946;SDS011;14501;52.282;10.560;2024-03-02T09:05:28;14.02;;;6.22;;
26946;SDS011;14501;52.282;10.560;2024-03-02T09:07:53;10.55;;;7.15;;
26946;SDS011;14501;52.282;10.560;2024-03-02T09:10:19;14.07;;;6.85;;
26946;SDS011;14501;52.282;10.560;2024-03-02T09:12:45;13.98;;;7.15;;
26946;SDS011;14501;52.282;10.560;2024-03-02T09:15:10;13.70;;;5.93;;
26946;SDS011;14501;52.282;10.560;2024-03-02T09:17:36;16.05;;;7.03;;
26946;SDS011;14501;52.282;10.560;2024-03-02T09:20:01;11.63;;;6.22;;
26946;SDS011;14501;52.282;10.560;2024-03-02T09:22:29;12.88;;;6.97;;
26946;SDS011;14501;52.282;10.560;2024-03-02T09:24:55;13.30;;;6.55;;
26946;SDS011;14501;52.282;10.560;2024-03-02T09:27:21;15.27;;;8.07;;
26946;SDS011;14501;52.282;10.560;2024-03-02T09:29:47;16.40;;;7.13;;
26946;SDS011;14501;52.282;10.560;2024-03-02T09:32:13;11.77;;;6.15;;
26946;SDS011;14501;52.282;10.560;2024-03-02T09:34:39;13.90;;;6.30;;
26946;SDS011;14501;52.282;10.560;2024-03-02T09:37:05;12.80;;;6.05;;
26946;SDS011;14501;52.282;10.560;2024-03-02T09:39:31;17.38;;;6.90;;
26946;SDS011;14501;52.282;10.560;2024-03-02T09:42:00;12.50;;;6.45;;
26946;SDS011;14501;52.282;10.560;2024-03-02T09:44:26;16.45;;;6.82;;
26946;SDS011;14501;52.282;10.560;2024-03-02T09:46:52;11.63;;;5.93;;
26946;SDS011;14501;52.282;10.560;2024-03-02T09:49:17;17.45;;;7.45;;
26946;SDS011;14501;52.282;10.560;2024-03-02T09:51:47;13.38;;;5.78;;
26946;SDS011;14501;52.282;10.560;2024-03-02T09:54:14;14.15;;;7.68;;
26946;SDS011;14501;52.282;10.560;2024-03-02T09:56:41;13.50;;;6.28;;
26946;SDS011;14501;52.282;10.560;2024-03-02T09:59:07;11.95;;;6.20;;
26946;SDS011;14501;52.282;10.560;2024-03-02T10:01:33;12.30;;;5.45;;
26946;SDS011;14501;52.282;10.560;2024-03-02T10:04:01;15.23;;;6.40;;
26946;SDS011;14501;52.282;10.560;2024-03-02T10:06:28;15.88;;;6.45;;
26946;SDS011;14501;52.282;10.560;2024-03-02T10:08:54;10.68;;;5.60;;
26946;SDS011;14501;52.282;10.560;2024-03-02T10:11:30;11.25;;;5.68;;
26946;SDS011;14501;52.282;10.560;2024-03-02T10:14:04;13.05;;;5.93;;
26946;SDS011;14501;52.282;10.560;2024-03-02T10:16:36;10.15;;;5.60;;
26946;SDS011;14501;52.282;10.560;2024-03-02T10:19:21;11.35;;;6.10;;
26946;SDS011;14501;52.282;10.560;2024-03-02T10:21:48;12.68;;;5.78;;
26946;SDS011;14501;52.282;10.560;2024-03-02T10:24:18;14.77;;;5.50;;
26946;SDS011;14501;52.282;10.560;2024-03-02T10:26:44;11.77;;;6.07;;
26946;SDS011;14501;52.282;10.560;2024-03-02T10:29:10;13.27;;;5.75;;
26946;SDS011;14501;52.282;10.560;2024-03-02T10:31:40;12.57;;;5.75;;
26946;SDS011;14501;52.282;10.560;2024-03-02T10:34:09;12.32;;;6.00;;
26946;SDS011;14501;52.282;10.560;2024-03-02T10:36:35;15.68;;;5.53;;
26946;SDS011;14501;52.282;10.560;2024-03-02T10:39:05;14.10;;;5.72;;
26946;SDS011;14501;52.282;10.560;2024-03-02T10:41:32;11.57;;;5.57;;
26946;SDS011;14501;52.282;10.560;2024-03-02T10:44:03;15.77;;;6.13;;
26946;SDS011;14501;52.282;10.560;2024-03-02T10:46:30;9.50;;;5.40;;
26946;SDS011;14501;52.282;10.560;2024-03-02T10:48:57;14.32;;;6.45;;
26946;SDS011;14501;52.282;10.560;2024-03-02T10:51:24;12.95;;;6.22;;
26946;SDS011;14501;52.282;10.560;2024-03-02T10:53:56;11.68;;;5.60;;
26946;SDS011;14501;52.282;10.560;2024-03-02T10:56:33;14.90;;;6.72;;
26946;SDS011;14501;52.282;10.560;2024-03-02T10:59:14;12.98;;;6.50;;
26946;SDS011;14501;52.282;10.560;2024-03-02T11:01:51;13.77;;;6.90;;
26946;SDS011;14501;52.282;10.560;2024-03-02T11:04:29;11.45;;;4.95;;
26946;SDS011;14501;52.282;10.560;2024-03-02T11:07:04;8.68;;;4.00;;
26946;SDS011;14501;52.282;10.560;2024-03-02T11:09:33;12.18;;;5.80;;
26946;SDS011;14501;52.282;10.560;2024-03-02T11:12:03;11.85;;;5.65;;
26946;SDS011;14501;52.282;10.560;2024-03-02T11:14:37;8.60;;;4.40;;
26946;SDS011;14501;52.282;10.560;2024-03-02T11:17:08;9.43;;;4.57;;
26946;SDS011;14501;52.282;10.560;2024-03-02T11:19:35;6.20;;;4.07;;
26946;SDS011;14501;52.282;10.560;2024-03-02T11:22:03;6.93;;;3.35;;
26946;SDS011;14501;52.282;10.560;2024-03-02T11:24:30;10.13;;;3.83;;
26946;SDS011;14501;52.282;10.560;2024-03-02T11:26:58;6.20;;;3.08;;
26946;SDS011;14501;52.282;10.560;2024-03-02T11:32:05;9.57;;;3.45;;
26946;SDS011;14501;52.282;10.560;2024-03-02T11:34:42;6.25;;;2.95;;
26946;SDS011;14501;52.282;10.560;2024-03-02T11:37:10;7.20;;;3.00;;
26946;SDS011;14501;52.282;10.560;2024-03-02T11:39:37;6.40;;;3.40;;
26946;SDS011;14501;52.282;10.560;2024-03-02T11:42:05;6.28;;;3.60;;
26946;SDS011;14501;52.282;10.560;2024-03-02T11:44:32;5.32;;;3.47;;
26946;SDS011;14501;52.282;10.560;2024-03-02T11:46:59;7.72;;;3.70;;
26946;SDS011;14501;52.282;10.560;2024-03-02T11:49:38;9.63;;;4.15;;
26946;SDS011;14501;52.282;10.560;2024-03-02T11:52:12;7.05;;;3.88;;
26946;SDS011;14501;52.282;10.560;2024-03-02T11:54:39;9.82;;;4.80;;
26946;SDS011;14501;52.282;10.560;2024-03-02T11:57:06;12.73;;;4.22;;
26946;SDS011;14501;52.282;10.560;2024-03-02T11:59:33;13.00;;;4.47;;
26946;SDS011;14501;52.282;10.560;2024-03-02T12:01:59;9.80;;;4.72;;
26946;SDS011;14501;52.282;10.560;2024-03-02T12:04:25;10.73;;;5.10;;
26946;SDS011;14501;52.282;10.560;2024-03-02T12:06:55;8.13;;;4.78;;
26946;SDS011;14501;52.282;10.560;2024-03-02T12:09:28;9.65;;;4.60;;
26946;SDS011;14501;52.282;10.560;2024-03-02T12:12:07;11.73;;;4.95;;
26946;SDS011;14501;52.282;10.560;2024-03-02T12:14:35;8.43;;;4.60;;
26946;SDS011;14501;52.282;10.560;2024-03-02T12:17:02;10.88;;;4.45;;
26946;SDS011;14501;52.282;10.560;2024-03-02T12:19:28;7.07;;;4.57;;
26946;SDS011;14501;52.282;10.560;2024-03-02T12:21:58;6.50;;;3.60;;
26946;SDS011;14501;52.282;10.560;2024-03-02T12:24:26;9.38;;;3.83;;
26946;SDS011;14501;52.282;10.560;2024-03-02T12:26:53;11.65;;;4.18;;
26946;SDS011;14501;52.282;10.560;2024-03-02T12:29:19;7.13;;;3.40;;
26946;SDS011;14501;52.282;10.560;2024-03-02T12:31:49;9.55;;;4.28;;
26946;SDS011;14501;52.282;10.560;2024-03-02T12:34:18;10.95;;;4.05;;
26946;SDS011;14501;52.282;10.560;2024-03-02T12:36:45;5.13;;;2.83;;
26946;SDS011;14501;52.282;10.560;2024-03-02T12:39:14;6.38;;;3.38;;
26946;SDS011;14501;52.282;10.560;2024-03-02T12:41:41;8.45;;;4.40;;
26946;SDS011;14501;52.282;10.560;2024-03-02T12:44:07;6.97;;;3.58;;
26946;SDS011;14501;52.282;10.560;2024-03-02T12:46:32;8.60;;;3.42;;
26946;SDS011;14501;52.282;10.560;2024-03-02T12:48:58;6.35;;;3.25;;
26946;SDS011;14501;52.282;10.560;2024-03-02T12:51:30;5.43;;;3.13;;
26946;SDS011;14501;52.282;10.560;2024-03-02T12:53:56;6.43;;;3.45;;
26946;SDS011;14501;52.282;10.560;2024-03-02T12:56:22;5.82;;;3.10;;
26946;SDS011;14501;52.282;10.560;2024-03-02T12:58:52;6.35;;;3.17;;
26946;SDS011;14501;52.282;10.560;2024-03-02T13:01:19;5.70;;;2.88;;
26946;SDS011;14501;52.282;10.560;2024-03-02T13:03:45;5.90;;;3.03;;
26946;SDS011;14501;52.282;10.560;2024-03-02T13:06:12;7.00;;;3.67;;
26946;SDS011;14501;52.282;10.560;2024-03-02T13:08:38;5.45;;;2.58;;
26946;SDS011;14501;52.282;10.560;2024-03-02T13:11:04;5.68;;;3.03;;
26946;SDS011;14501;52.282;10.560;2024-03-02T13:13:31;6.30;;;3.05;;
26946;SDS011;14501;52.282;10.560;2024-03-02T13:15:58;5.47;;;2.42;;
26946;SDS011;14501;52.282;10.560;2024-03-02T13:18:24;4.53;;;2.40;;
26946;SDS011;14501;52.282;10.560;2024-03-02T13:20:49;4.85;;;2.30;;
26946;SDS011;14501;52.282;10.560;2024-03-02T13:23:15;6.20;;;2.90;;
26946;SDS011;14501;52.282;10.560;2024-03-02T13:25:41;6.15;;;3.35;;
26946;SDS011;14501;52.282;10.560;2024-03-02T13:28:08;7.60;;;3.10;;
26946;SDS011;14501;52.282;10.560;2024-03-02T13:30:33;9.68;;;3.28;;
26946;SDS011;14501;52.282;10.560;2024-03-02T13:32:59;5.18;;;2.97;;
26946;SDS011;14501;52.282;10.560;2024-03-02T13:35:25;7.30;;;3.47;;
26946;SDS011;14501;52.282;10.560;2024-03-02T13:37:51;6.10;;;3.20;;
26946;SDS011;14501;52.282;10.560;2024-03-02T13:40:16;6.00;;;2.88;;
26946;SDS011;14501;52.282;10.560;2024-03-02T13:42:45;6.03;;;2.83;;
26946;SDS011;14501;52.282;10.560;2024-03-02T13:45:12;7.97;;;2.60;;
26946;SDS011;14501;52.282;10.560;2024-03-02T13:47:40;4.47;;;2.78;;
26946;SDS011;14501;52.282;10.560;2024-03-02T13:50:07;5.57;;;2.80;;
26946;SDS011;14501;52.282;10.560;2024-03-02T13:52:36;4.80;;;2.53;;
26946;SDS011;14501;52.282;10.560;2024-03-02T13:55:01;4.45;;;2.58;;
26946;SDS011;14501;52.282;10.560;2024-03-02T13:57:27;6.65;;;2.47;;
26946;SDS011;14501;52.282;10.560;2024-03-02T13:59:53;10.10;;;3.17;;
26946;SDS011;14501;52.282;10.560;2024-03-02T14:02:19;7.93;;;2.92;;
26946;SDS011;14501;52.282;10.560;2024-03-02T14:04:45;5.00;;;2.28;;
26946;SDS011;14501;52.282;10.560;2024-03-02T14:07:14;9.05;;;2.97;;
26946;SDS011;14501;52.282;10.560;2024-03-02T14:09:40;3.70;;;2.53;;
26946;SDS011;14501;52.282;10.560;2024-03-02T14:12:06;4.55;;;2.38;;
26946;SDS011;14501;52.282;10.560;2024-03-02T14:14:32;6.40;;;2.80;;
26946;SDS011;14501;52.282;10.560;2024-03-02T14:16:57;5.57;;;2.40;;
26946;SDS011;14501;52.282;10.560;2024-03-02T14:19:28;9.38;;;2.58;;
26946;SDS011;14501;52.282;10.560;2024-03-02T14:21:53;5.43;;;2.25;;
26946;SDS011;14501;52.282;10.560;2024-03-02T14:24:19;8.23;;;2.50;;
26946;SDS011;14501;52.282;10.560;2024-03-02T14:26:48;3.58;;;2.13;;
26946;SDS011;14501;52.282;10.560;2024-03-02T14:29:14;7.03;;;2.85;;
26946;SDS011;14501;52.282;10.560;2024-03-02T14:31:40;5.53;;;2.78;;
26946;SDS011;14501;52.282;10.560;2024-03-02T14:34:05;7.20;;;2.47;;